sensor_id;sensor_type;location;lat;lon;timestamp;P1;durP1;ratioP1;P2;durP2;ratioP2
27977;SDS011;15314;49.248;6.968;2023-01-29T00:00:40;9.15;;;8.55;;
27977;SDS011;15314;49.248;6.968;2023-01-29T00:01:40;8.65;;;8.20;;
27977;SDS011;15314;49.248;6.968;2023-01-29T00:02:41;8.35;;;7.85;;
27977;SDS011;15314;49.248;6.968;2023-01-29T00:03:41;9.35;;;8.38;;
27977;SDS011;15314;49.248;6.968;2023-01-29T00:04:42;8.23;;;7.82;;
27977;SDS011;15314;49.248;6.968;2023-01-29T00:05:43;8.52;;;8.02;;
27977;SDS011;15314;49.248;6.968;2023-01-29T00:06:44;8.23;;;7.72;;
27977;SDS011;15314;49.248;6.968;2023-01-29T00:07:44;8.68;;;8.10;;
27977;SDS011;15314;49.248;6.968;2023-01-29T00:08:45;8.32;;;7.80;;
27977;SDS011;15314;49.248;6.968;2023-01-29T00:09:46;8.73;;;7.90;;
27977;SDS011;15314;49.248;6.968;2023-01-29T00:10:47;8.63;;;8.18;;
27977;SDS011;15314;49.248;6.968;2023-01-29T00:11:47;8.63;;;8.13;;
27977;SDS011;15314;49.248;6.968;2023-01-29T00:12:48;9.38;;;8.68;;
27977;SDS011;15314;49.248;6.968;2023-01-29T00:13:51;8.98;;;8.48;;
27977;SDS011;15314;49.248;6.968;2023-01-29T00:14:51;8.75;;;8.25;;
27977;SDS011;15314;49.248;6.968;2023-01-29T00:15:57;9.13;;;8.68;;
27977;SDS011;15314;49.248;6.968;2023-01-29T00:16:58;8.60;;;8.15;;
27977;SDS011;15314;49.248;6.968;2023-01-29T00:17:58;8.60;;;8.07;;
27977;SDS011;15314;49.248;6.968;2023-01-29T00:18:59;9.02;;;8.32;;
27977;SDS011;15314;49.248;6.968;2023-01-29T00:20:01;8.32;;;7.93;;
27977;SDS011;15314;49.248;6.968;2023-01-29T00:21:01;8.90;;;8.30;;
27977;SDS011;15314;49.248;6.968;2023-01-29T00:22:02;8.90;;;8.30;;
27977;SDS011;15314;49.248;6.968;2023-01-29T00:23:03;9.15;;;8.48;;
27977;SDS011;15314;49.248;6.968;2023-01-29T00:24:03;7.97;;;7.53;;
27977;SDS011;15314;49.248;6.968;2023-01-29T00:25:04;23.23;;;20.38;;
27977;SDS011;15314;49.248;6.968;2023-01-29T00:26:05;15.50;;;14.10;;
27977;SDS011;15314;49.248;6.968;2023-01-29T00:27:06;9.10;;;8.48;;
27977;SDS011;15314;49.248;6.968;2023-01-29T00:28:07;8.52;;;7.97;;
27977;SDS011;15314;49.248;6.968;2023-01-29T00:29:08;8.30;;;7.43;;
27977;SDS011;15314;49.248;6.968;2023-01-29T00:30:09;8.60;;;8.10;;
27977;SDS011;15314;49.248;6.968;2023-01-29T00:31:16;8.65;;;8.15;;
27977;SDS011;15314;49.248;6.968;2023-01-29T00:32:20;8.38;;;7.90;;
27977;SDS011;15314;49.248;6.968;2023-01-29T00:33:20;8.23;;;7.82;;
27977;SDS011;15314;49.248;6.968;2023-01-29T00:34:21;7.70;;;7.30;;
27977;SDS011;15314;49.248;6.968;2023-01-29T00:35:22;9.07;;;8.38;;
27977;SDS011;15314;49.248;6.968;2023-01-29T00:36:23;8.98;;;8.38;;
27977;SDS011;15314;49.248;6.968;2023-01-29T00:37:25;8.35;;;7.85;;
27977;SDS011;15314;49.248;6.968;2023-01-29T00:38:25;8.93;;;8.43;;
27977;SDS011;15314;49.248;6.968;2023-01-29T00:39:26;8.55;;;7.95;;
27977;SDS011;15314;49.248;6.968;2023-01-29T00:40:38;8.70;;;8.20;;
27977;SDS011;15314;49.248;6.968;2023-01-29T00:42:05;8.52;;;8.02;;
27977;SDS011;15314;49.248;6.968;2023-01-29T00:43:24;8.30;;;7.90;;
27977;SDS011;15314;49.248;6.968;2023-01-29T00:44:43;8.82;;;8.18;;
27977;SDS011;15314;49.248;6.968;2023-01-29T00:45:56;8.05;;;7.65;;
27977;SDS011;15314;49.248;6.968;2023-01-29T00:46:56;8.65;;;8.15;;
27977;SDS011;15314;49.248;6.968;2023-01-29T00:47:57;8.20;;;7.78;;
27977;SDS011;15314;49.248;6.968;2023-01-29T00:48:58;8.95;;;8.45;;
27977;SDS011;15314;49.248;6.968;2023-01-29T00:49:59;8.50;;;8.10;;
27977;SDS011;15314;49.248;6.968;2023-01-29T00:51:01;9.35;;;8.65;;
27977;SDS011;15314;49.248;6.968;2023-01-29T00:52:02;8.75;;;8.15;;
27977;SDS011;15314;49.248;6.968;2023-01-29T00:53:21;9.07;;;8.57;;
27977;SDS011;15314;49.248;6.968;2023-01-29T00:54:22;8.90;;;8.40;;
27977;SDS011;15314;49.248;6.968;2023-01-29T00:55:22;8.90;;;8.40;;
27977;SDS011;15314;49.248;6.968;2023-01-29T00:56:23;8.23;;;7.82;;
27977;SDS011;15314;49.248;6.968;2023-01-29T00:57:25;8.82;;;8.32;;
27977;SDS011;15314;49.248;6.968;2023-01-29T00:58:27;9.48;;;8.68;;
27977;SDS011;15314;49.248;6.968;2023-01-29T00:59:33;8.52;;;8.13;;
27977;SDS011;15314;49.248;6.968;2023-01-29T01:00:33;9.55;;;8.80;;
27977;SDS011;15314;49.248;6.968;2023-01-29T01:01:34;8.90;;;8.40;;
27977;SDS011;15314;49.248;6.968;2023-01-29T01:02:53;8.93;;;8.32;;
27977;SDS011;15314;49.248;6.968;2023-01-29T01:04:06;8.70;;;8.20;;
27977;SDS011;15314;49.248;6.968;2023-01-29T01:05:09;9.57;;;8.98;;
27977;SDS011;15314;49.248;6.968;2023-01-29T01:06:16;8.65;;;8.10;;
27977;SDS011;15314;49.248;6.968;2023-01-29T01:07:17;8.55;;;8.15;;
27977;SDS011;15314;49.248;6.968;2023-01-29T01:08:17;8.73;;;8.23;;
27977;SDS011;15314;49.248;6.968;2023-01-29T01:09:37;9.52;;;8.90;;
27977;SDS011;15314;49.248;6.968;2023-01-29T01:11:05;9.07;;;8.45;;
27977;SDS011;15314;49.248;6.968;2023-01-29T01:12:06;8.73;;;8.10;;
27977;SDS011;15314;49.248;6.968;2023-01-29T01:13:06;9.20;;;8.50;;
27977;SDS011;15314;49.248;6.968;2023-01-29T01:14:07;9.73;;;8.95;;
27977;SDS011;15314;49.248;6.968;2023-01-29T01:15:08;9.13;;;8.45;;
27977;SDS011;15314;49.248;6.968;2023-01-29T01:16:10;9.68;;;8.98;;
27977;SDS011;15314;49.248;6.968;2023-01-29T01:17:15;10.05;;;9.45;;
27977;SDS011;15314;49.248;6.968;2023-01-29T01:18:16;9.23;;;8.73;;
27977;SDS011;15314;49.248;6.968;2023-01-29T01:19:19;9.60;;;9.10;;
27977;SDS011;15314;49.248;6.968;2023-01-29T01:20:20;9.52;;;8.82;;
27977;SDS011;15314;49.248;6.968;2023-01-29T01:21:21;9.70;;;9.10;;
27977;SDS011;15314;49.248;6.968;2023-01-29T01:22:22;9.80;;;9.13;;
27977;SDS011;15314;49.248;6.968;2023-01-29T01:23:22;10.00;;;9.48;;
27977;SDS011;15314;49.248;6.968;2023-01-29T01:24:23;9.38;;;8.88;;
27977;SDS011;15314;49.248;6.968;2023-01-29T01:25:24;10.05;;;9.35;;
27977;SDS011;15314;49.248;6.968;2023-01-29T01:26:26;9.90;;;9.27;;
27977;SDS011;15314;49.248;6.968;2023-01-29T01:27:27;8.98;;;8.48;;
27977;SDS011;15314;49.248;6.968;2023-01-29T01:28:28;9.45;;;8.90;;
27977;SDS011;15314;49.248;6.968;2023-01-29T01:29:28;9.85;;;9.25;;
27977;SDS011;15314;49.248;6.968;2023-01-29T01:30:29;9.35;;;8.82;;
27977;SDS011;15314;49.248;6.968;2023-01-29T01:31:30;9.13;;;8.63;;
27977;SDS011;15314;49.248;6.968;2023-01-29T01:32:30;9.45;;;8.75;;
27977;SDS011;15314;49.248;6.968;2023-01-29T01:33:31;9.38;;;8.88;;
27977;SDS011;15314;49.248;6.968;2023-01-29T01:34:31;9.30;;;8.80;;
27977;SDS011;15314;49.248;6.968;2023-01-29T01:35:32;10.18;;;9.25;;
27977;SDS011;15314;49.248;6.968;2023-01-29T01:36:33;9.90;;;9.30;;
27977;SDS011;15314;49.248;6.968;2023-01-29T01:37:33;9.05;;;8.55;;
27977;SDS011;15314;49.248;6.968;2023-01-29T01:38:36;9.68;;;9.10;;
27977;SDS011;15314;49.248;6.968;2023-01-29T01:39:43;10.27;;;9.48;;
27977;SDS011;15314;49.248;6.968;2023-01-29T01:40:47;9.77;;;9.00;;
27977;SDS011;15314;49.248;6.968;2023-01-29T01:41:48;9.90;;;9.27;;
27977;SDS011;15314;49.248;6.968;2023-01-29T01:42:50;10.07;;;9.38;;
27977;SDS011;15314;49.248;6.968;2023-01-29T01:43:56;9.45;;;8.85;;
27977;SDS011;15314;49.248;6.968;2023-01-29T01:45:00;9.48;;;8.98;;
27977;SDS011;15314;49.248;6.968;2023-01-29T01:46:04;10.20;;;9.40;;
27977;SDS011;15314;49.248;6.968;2023-01-29T01:47:04;9.80;;;9.20;;
27977;SDS011;15314;49.248;6.968;2023-01-29T01:49:15;10.13;;;9.40;;
27977;SDS011;15314;49.248;6.968;2023-01-29T01:51:37;9.77;;;9.07;;
27977;SDS011;15314;49.248;6.968;2023-01-29T01:52:43;9.82;;;9.15;;
27977;SDS011;15314;49.248;6.968;2023-01-29T01:53:50;10.00;;;9.25;;
27977;SDS011;15314;49.248;6.968;2023-01-29T01:55:19;9.38;;;8.77;;
27977;SDS011;15314;49.248;6.968;2023-01-29T01:56:26;10.13;;;9.32;;
27977;SDS011;15314;49.248;6.968;2023-01-29T01:57:37;9.32;;;8.82;;
27977;SDS011;15314;49.248;6.968;2023-01-29T01:58:40;9.20;;;8.60;;
27977;SDS011;15314;49.248;6.968;2023-01-29T01:59:47;9.18;;;8.50;;
27977;SDS011;15314;49.248;6.968;2023-01-29T02:00:51;8.93;;;8.43;;
27977;SDS011;15314;49.248;6.968;2023-01-29T02:01:53;9.55;;;9.05;;
27977;SDS011;15314;49.248;6.968;2023-01-29T02:02:54;9.68;;;9.07;;
27977;SDS011;15314;49.248;6.968;2023-01-29T02:04:14;9.52;;;9.00;;
27977;SDS011;15314;49.248;6.968;2023-01-29T02:05:35;9.80;;;9.20;;
27977;SDS011;15314;49.248;6.968;2023-01-29T02:06:57;9.93;;;9.38;;
27977;SDS011;15314;49.248;6.968;2023-01-29T02:08:19;9.30;;;8.80;;
27977;SDS011;15314;49.248;6.968;2023-01-29T02:11:11;9.30;;;8.85;;
27977;SDS011;15314;49.248;6.968;2023-01-29T02:12:13;9.52;;;8.93;;
27977;SDS011;15314;49.248;6.968;2023-01-29T02:13:16;9.73;;;9.13;;
27977;SDS011;15314;49.248;6.968;2023-01-29T02:14:17;9.85;;;9.10;;
27977;SDS011;15314;49.248;6.968;2023-01-29T02:15:18;9.35;;;8.77;;
27977;SDS011;15314;49.248;6.968;2023-01-29T02:16:20;9.50;;;8.90;;
27977;SDS011;15314;49.248;6.968;2023-01-29T02:17:21;9.80;;;9.10;;
27977;SDS011;15314;49.248;6.968;2023-01-29T02:18:22;10.32;;;9.63;;
27977;SDS011;15314;49.248;6.968;2023-01-29T02:19:37;10.23;;;9.40;;
27977;SDS011;15314;49.248;6.968;2023-01-29T02:21:06;9.75;;;9.15;;
27977;SDS011;15314;49.248;6.968;2023-01-29T02:22:40;10.13;;;9.30;;
27977;SDS011;15314;49.248;6.968;2023-01-29T02:24:10;10.80;;;10.10;;
27977;SDS011;15314;49.248;6.968;2023-01-29T02:28:30;9.65;;;9.15;;
27977;SDS011;15314;49.248;6.968;2023-01-29T02:29:42;9.27;;;8.57;;
27977;SDS011;15314;49.248;6.968;2023-01-29T02:31:18;9.63;;;9.13;;
27977;SDS011;15314;49.248;6.968;2023-01-29T02:35:29;10.77;;;9.77;;
27977;SDS011;15314;49.248;6.968;2023-01-29T02:36:39;9.93;;;9.32;;
27977;SDS011;15314;49.248;6.968;2023-01-29T02:38:08;9.52;;;9.00;;
27977;SDS011;15314;49.248;6.968;2023-01-29T02:39:56;10.70;;;10.02;;
27977;SDS011;15314;49.248;6.968;2023-01-29T02:42:37;10.20;;;9.60;;
27977;SDS011;15314;49.248;6.968;2023-01-29T02:43:54;10.20;;;9.60;;
27977;SDS011;15314;49.248;6.968;2023-01-29T02:45:09;10.70;;;10.02;;
27977;SDS011;15314;49.248;6.968;2023-01-29T02:46:31;9.90;;;9.30;;
27977;SDS011;15314;49.248;6.968;2023-01-29T02:47:40;10.88;;;10.18;;
27977;SDS011;15314;49.248;6.968;2023-01-29T02:50:20;10.30;;;9.70;;
27977;SDS011;15314;49.248;6.968;2023-01-29T02:51:30;10.07;;;9.48;;
27977;SDS011;15314;49.248;6.968;2023-01-29T02:55:17;10.23;;;9.45;;
27977;SDS011;15314;49.248;6.968;2023-01-29T02:56:27;10.43;;;9.63;;
27977;SDS011;15314;49.248;6.968;2023-01-29T02:57:36;10.00;;;9.38;;
27977;SDS011;15314;49.248;6.968;2023-01-29T02:58:51;10.18;;;9.57;;
27977;SDS011;15314;49.248;6.968;2023-01-29T03:00:22;10.55;;;9.65;;
27977;SDS011;15314;49.248;6.968;2023-01-29T03:01:30;10.40;;;9.70;;
27977;SDS011;15314;49.248;6.968;2023-01-29T03:02:36;10.60;;;9.88;;
27977;SDS011;15314;49.248;6.968;2023-01-29T03:03:44;9.70;;;9.07;;
27977;SDS011;15314;49.248;6.968;2023-01-29T03:04:51;10.02;;;9.43;;
27977;SDS011;15314;49.248;6.968;2023-01-29T03:07:07;10.07;;;9.48;;
27977;SDS011;15314;49.248;6.968;2023-01-29T03:08:42;10.75;;;9.95;;
27977;SDS011;15314;49.248;6.968;2023-01-29T03:09:49;10.68;;;10.00;;
27977;SDS011;15314;49.248;6.968;2023-01-29T03:10:53;10.75;;;10.07;;
27977;SDS011;15314;49.248;6.968;2023-01-29T03:12:21;10.48;;;9.88;;
27977;SDS011;15314;49.248;6.968;2023-01-29T03:13:38;11.13;;;10.13;;
27977;SDS011;15314;49.248;6.968;2023-01-29T03:14:40;10.18;;;9.57;;
27977;SDS011;15314;49.248;6.968;2023-01-29T03:16:01;10.80;;;10.10;;
27977;SDS011;15314;49.248;6.968;2023-01-29T03:17:19;11.25;;;10.45;;
27977;SDS011;15314;49.248;6.968;2023-01-29T03:18:27;11.30;;;10.50;;
27977;SDS011;15314;49.248;6.968;2023-01-29T03:19:37;11.50;;;10.70;;
27977;SDS011;15314;49.248;6.968;2023-01-29T03:20:41;12.25;;;11.23;;
27977;SDS011;15314;49.248;6.968;2023-01-29T03:21:55;11.27;;;10.57;;
27977;SDS011;15314;49.248;6.968;2023-01-29T03:23:01;11.48;;;10.70;;
27977;SDS011;15314;49.248;6.968;2023-01-29T03:24:05;11.60;;;10.70;;
27977;SDS011;15314;49.248;6.968;2023-01-29T03:25:28;11.43;;;10.70;;
27977;SDS011;15314;49.248;6.968;2023-01-29T03:26:49;11.02;;;10.32;;
27977;SDS011;15314;49.248;6.968;2023-01-29T03:29:31;11.32;;;10.55;;
27977;SDS011;15314;49.248;6.968;2023-01-29T03:30:53;11.05;;;10.25;;
27977;SDS011;15314;49.248;6.968;2023-01-29T03:32:15;11.60;;;10.75;;
27977;SDS011;15314;49.248;6.968;2023-01-29T03:33:17;10.98;;;10.27;;
27977;SDS011;15314;49.248;6.968;2023-01-29T03:34:22;11.80;;;11.05;;
27977;SDS011;15314;49.248;6.968;2023-01-29T03:35:35;11.10;;;10.38;;
27977;SDS011;15314;49.248;6.968;2023-01-29T03:36:40;11.45;;;10.60;;
27977;SDS011;15314;49.248;6.968;2023-01-29T03:37:48;11.25;;;10.50;;
27977;SDS011;15314;49.248;6.968;2023-01-29T03:38:48;11.23;;;10.43;;
27977;SDS011;15314;49.248;6.968;2023-01-29T03:39:49;11.35;;;10.55;;
27977;SDS011;15314;49.248;6.968;2023-01-29T03:42:43;12.10;;;11.20;;
27977;SDS011;15314;49.248;6.968;2023-01-29T03:44:10;11.57;;;10.80;;
27977;SDS011;15314;49.248;6.968;2023-01-29T03:46:37;11.55;;;10.85;;
27977;SDS011;15314;49.248;6.968;2023-01-29T03:47:59;11.23;;;10.52;;
27977;SDS011;15314;49.248;6.968;2023-01-29T03:49:20;11.40;;;10.70;;
27977;SDS011;15314;49.248;6.968;2023-01-29T03:51:59;11.13;;;10.43;;
27977;SDS011;15314;49.248;6.968;2023-01-29T03:53:16;11.20;;;10.40;;
27977;SDS011;15314;49.248;6.968;2023-01-29T03:56:20;11.55;;;10.85;;
27977;SDS011;15314;49.248;6.968;2023-01-29T03:57:41;11.15;;;10.35;;
27977;SDS011;15314;49.248;6.968;2023-01-29T03:58:55;11.65;;;10.65;;
27977;SDS011;15314;49.248;6.968;2023-01-29T04:00:11;11.15;;;10.45;;
27977;SDS011;15314;49.248;6.968;2023-01-29T04:01:15;11.32;;;10.35;;
27977;SDS011;15314;49.248;6.968;2023-01-29T04:02:57;10.57;;;9.88;;
27977;SDS011;15314;49.248;6.968;2023-01-29T04:04:08;10.82;;;10.02;;
27977;SDS011;15314;49.248;6.968;2023-01-29T04:05:17;10.38;;;9.77;;
27977;SDS011;15314;49.248;6.968;2023-01-29T04:06:21;11.23;;;10.43;;
27977;SDS011;15314;49.248;6.968;2023-01-29T04:07:26;11.10;;;10.45;;
27977;SDS011;15314;49.248;6.968;2023-01-29T04:08:33;11.98;;;11.07;;
27977;SDS011;15314;49.248;6.968;2023-01-29T04:09:50;13.48;;;12.18;;
27977;SDS011;15314;49.248;6.968;2023-01-29T04:10:55;13.77;;;12.55;;
27977;SDS011;15314;49.248;6.968;2023-01-29T04:12:01;13.82;;;12.73;;
27977;SDS011;15314;49.248;6.968;2023-01-29T04:13:09;15.38;;;14.05;;
27977;SDS011;15314;49.248;6.968;2023-01-29T04:14:13;15.38;;;12.60;;
27977;SDS011;15314;49.248;6.968;2023-01-29T04:15:15;12.95;;;12.05;;
27977;SDS011;15314;49.248;6.968;2023-01-29T04:16:17;12.65;;;11.65;;
27977;SDS011;15314;49.248;6.968;2023-01-29T04:17:22;12.10;;;11.15;;
27977;SDS011;15314;49.248;6.968;2023-01-29T04:18:28;10.38;;;9.77;;
27977;SDS011;15314;49.248;6.968;2023-01-29T04:19:30;10.52;;;9.82;;
27977;SDS011;15314;49.248;6.968;2023-01-29T04:20:30;9.85;;;9.25;;
27977;SDS011;15314;49.248;6.968;2023-01-29T04:21:31;10.48;;;9.65;;
27977;SDS011;15314;49.248;6.968;2023-01-29T04:22:34;10.52;;;9.82;;
27977;SDS011;15314;49.248;6.968;2023-01-29T04:23:37;10.63;;;9.93;;
27977;SDS011;15314;49.248;6.968;2023-01-29T04:24:37;10.07;;;9.48;;
27977;SDS011;15314;49.248;6.968;2023-01-29T04:25:43;10.00;;;9.38;;
27977;SDS011;15314;49.248;6.968;2023-01-29T04:29:19;10.93;;;10.10;;
27977;SDS011;15314;49.248;6.968;2023-01-29T04:30:45;10.45;;;9.65;;
27977;SDS011;15314;49.248;6.968;2023-01-29T04:34:20;10.52;;;9.77;;
27977;SDS011;15314;49.248;6.968;2023-01-29T04:37:08;10.30;;;9.60;;
27977;SDS011;15314;49.248;6.968;2023-01-29T04:38:23;9.57;;;8.98;;
27977;SDS011;15314;49.248;6.968;2023-01-29T04:39:54;11.02;;;10.23;;
27977;SDS011;15314;49.248;6.968;2023-01-29T04:41:08;10.70;;;9.90;;
27977;SDS011;15314;49.248;6.968;2023-01-29T04:44:19;9.63;;;9.07;;
27977;SDS011;15314;49.248;6.968;2023-01-29T04:45:44;10.90;;;9.98;;
27977;SDS011;15314;49.248;6.968;2023-01-29T04:47:01;10.63;;;9.85;;
27977;SDS011;15314;49.248;6.968;2023-01-29T04:48:20;9.75;;;9.25;;
27977;SDS011;15314;49.248;6.968;2023-01-29T04:49:28;10.85;;;10.00;;
27977;SDS011;15314;49.248;6.968;2023-01-29T04:51:59;11.48;;;10.57;;
27977;SDS011;15314;49.248;6.968;2023-01-29T04:53:18;10.35;;;9.73;;
27977;SDS011;15314;49.248;6.968;2023-01-29T04:56:41;11.13;;;10.32;;
27977;SDS011;15314;49.248;6.968;2023-01-29T04:58:07;10.57;;;9.98;;
27977;SDS011;15314;49.248;6.968;2023-01-29T04:59:16;10.80;;;10.20;;
27977;SDS011;15314;49.248;6.968;2023-01-29T05:00:28;10.38;;;9.63;;
27977;SDS011;15314;49.248;6.968;2023-01-29T05:01:32;10.55;;;9.90;;
27977;SDS011;15314;49.248;6.968;2023-01-29T05:02:36;11.20;;;10.50;;
27977;SDS011;15314;49.248;6.968;2023-01-29T05:03:39;10.75;;;9.93;;
27977;SDS011;15314;49.248;6.968;2023-01-29T05:04:42;11.27;;;10.52;;
27977;SDS011;15314;49.248;6.968;2023-01-29T05:05:45;10.68;;;9.98;;
27977;SDS011;15314;49.248;6.968;2023-01-29T05:06:47;11.55;;;10.63;;
27977;SDS011;15314;49.248;6.968;2023-01-29T05:07:49;11.60;;;10.68;;
27977;SDS011;15314;49.248;6.968;2023-01-29T05:08:50;10.98;;;10.07;;
27977;SDS011;15314;49.248;6.968;2023-01-29T05:09:51;11.10;;;10.18;;
27977;SDS011;15314;49.248;6.968;2023-01-29T05:10:52;10.48;;;9.88;;
27977;SDS011;15314;49.248;6.968;2023-01-29T05:11:54;10.90;;;10.07;;
27977;SDS011;15314;49.248;6.968;2023-01-29T05:12:57;10.82;;;10.13;;
27977;SDS011;15314;49.248;6.968;2023-01-29T05:14:01;11.55;;;10.63;;
27977;SDS011;15314;49.248;6.968;2023-01-29T05:15:07;11.52;;;10.63;;
27977;SDS011;15314;49.248;6.968;2023-01-29T05:17:17;11.48;;;10.68;;
27977;SDS011;15314;49.248;6.968;2023-01-29T05:18:19;11.23;;;10.52;;
27977;SDS011;15314;49.248;6.968;2023-01-29T05:19:20;10.82;;;9.95;;
27977;SDS011;15314;49.248;6.968;2023-01-29T05:20:21;10.63;;;9.93;;
27977;SDS011;15314;49.248;6.968;2023-01-29T05:21:21;11.65;;;10.73;;
27977;SDS011;15314;49.248;6.968;2023-01-29T05:22:23;10.25;;;9.65;;
27977;SDS011;15314;49.248;6.968;2023-01-29T05:23:24;10.70;;;10.00;;
27977;SDS011;15314;49.248;6.968;2023-01-29T05:24:27;11.10;;;10.40;;
27977;SDS011;15314;49.248;6.968;2023-01-29T05:25:29;11.32;;;10.30;;
27977;SDS011;15314;49.248;6.968;2023-01-29T05:26:31;11.73;;;10.93;;
27977;SDS011;15314;49.248;6.968;2023-01-29T05:27:52;12.20;;;11.32;;
27977;SDS011;15314;49.248;6.968;2023-01-29T05:29:06;11.15;;;10.43;;
27977;SDS011;15314;49.248;6.968;2023-01-29T05:30:07;11.10;;;10.38;;
27977;SDS011;15314;49.248;6.968;2023-01-29T05:31:09;10.90;;;10.10;;
27977;SDS011;15314;49.248;6.968;2023-01-29T05:32:09;10.48;;;9.82;;
27977;SDS011;15314;49.248;6.968;2023-01-29T05:33:11;10.75;;;10.02;;
27977;SDS011;15314;49.248;6.968;2023-01-29T05:34:14;10.77;;;10.18;;
27977;SDS011;15314;49.248;6.968;2023-01-29T05:35:15;10.85;;;10.15;;
27977;SDS011;15314;49.248;6.968;2023-01-29T05:36:15;10.30;;;9.68;;
27977;SDS011;15314;49.248;6.968;2023-01-29T05:37:16;10.48;;;9.52;;
27977;SDS011;15314;49.248;6.968;2023-01-29T05:38:17;10.63;;;9.70;;
27977;SDS011;15314;49.248;6.968;2023-01-29T05:39:18;10.40;;;9.77;;
27977;SDS011;15314;49.248;6.968;2023-01-29T05:40:19;10.80;;;10.10;;
27977;SDS011;15314;49.248;6.968;2023-01-29T05:41:23;11.52;;;10.82;;
27977;SDS011;15314;49.248;6.968;2023-01-29T05:42:24;11.20;;;10.30;;
27977;SDS011;15314;49.248;6.968;2023-01-29T05:43:25;10.90;;;10.20;;
27977;SDS011;15314;49.248;6.968;2023-01-29T05:44:26;11.27;;;10.48;;
27977;SDS011;15314;49.248;6.968;2023-01-29T05:45:26;10.18;;;9.48;;
27977;SDS011;15314;49.248;6.968;2023-01-29T05:46:27;10.80;;;10.05;;
27977;SDS011;15314;49.248;6.968;2023-01-29T05:47:28;10.80;;;10.10;;
27977;SDS011;15314;49.248;6.968;2023-01-29T05:48:28;10.70;;;9.90;;
27977;SDS011;15314;49.248;6.968;2023-01-29T05:49:31;10.73;;;10.02;;
27977;SDS011;15314;49.248;6.968;2023-01-29T05:50:31;11.68;;;10.77;;
27977;SDS011;15314;49.248;6.968;2023-01-29T05:51:32;11.20;;;10.43;;
27977;SDS011;15314;49.248;6.968;2023-01-29T05:52:32;11.18;;;10.15;;
27977;SDS011;15314;49.248;6.968;2023-01-29T05:53:33;10.65;;;9.85;;
27977;SDS011;15314;49.248;6.968;2023-01-29T05:54:33;10.75;;;10.05;;
27977;SDS011;15314;49.248;6.968;2023-01-29T05:55:34;10.57;;;9.88;;
27977;SDS011;15314;49.248;6.968;2023-01-29T05:56:35;10.38;;;9.77;;
27977;SDS011;15314;49.248;6.968;2023-01-29T05:57:36;10.27;;;9.57;;
27977;SDS011;15314;49.248;6.968;2023-01-29T05:58:36;11.35;;;10.38;;
27977;SDS011;15314;49.248;6.968;2023-01-29T05:59:37;10.65;;;9.93;;
27977;SDS011;15314;49.248;6.968;2023-01-29T06:00:38;11.20;;;10.40;;
27977;SDS011;15314;49.248;6.968;2023-01-29T06:01:39;11.07;;;10.18;;
27977;SDS011;15314;49.248;6.968;2023-01-29T06:02:39;10.70;;;9.93;;
27977;SDS011;15314;49.248;6.968;2023-01-29T06:03:40;10.40;;;9.60;;
27977;SDS011;15314;49.248;6.968;2023-01-29T06:04:41;10.48;;;9.68;;
27977;SDS011;15314;49.248;6.968;2023-01-29T06:05:41;10.13;;;9.52;;
27977;SDS011;15314;49.248;6.968;2023-01-29T06:06:42;10.85;;;10.05;;
27977;SDS011;15314;49.248;6.968;2023-01-29T06:07:43;11.13;;;10.23;;
27977;SDS011;15314;49.248;6.968;2023-01-29T06:08:44;10.93;;;10.20;;
27977;SDS011;15314;49.248;6.968;2023-01-29T06:09:45;10.85;;;10.15;;
27977;SDS011;15314;49.248;6.968;2023-01-29T06:10:45;10.20;;;9.60;;
27977;SDS011;15314;49.248;6.968;2023-01-29T06:11:46;10.50;;;9.80;;
27977;SDS011;15314;49.248;6.968;2023-01-29T06:12:46;10.70;;;9.80;;
27977;SDS011;15314;49.248;6.968;2023-01-29T06:13:47;10.45;;;9.68;;
27977;SDS011;15314;49.248;6.968;2023-01-29T06:14:48;10.90;;;10.10;;
27977;SDS011;15314;49.248;6.968;2023-01-29T06:15:48;11.27;;;10.57;;
27977;SDS011;15314;49.248;6.968;2023-01-29T06:16:49;10.98;;;10.27;;
27977;SDS011;15314;49.248;6.968;2023-01-29T06:17:51;11.00;;;10.15;;
27977;SDS011;15314;49.248;6.968;2023-01-29T06:18:52;11.25;;;10.35;;
27977;SDS011;15314;49.248;6.968;2023-01-29T06:19:53;10.77;;;10.05;;
27977;SDS011;15314;49.248;6.968;2023-01-29T06:20:54;11.20;;;10.50;;
27977;SDS011;15314;49.248;6.968;2023-01-29T06:21:54;11.30;;;10.40;;
27977;SDS011;15314;49.248;6.968;2023-01-29T06:22:55;11.45;;;10.65;;
27977;SDS011;15314;49.248;6.968;2023-01-29T06:23:55;11.43;;;10.63;;
27977;SDS011;15314;49.248;6.968;2023-01-29T06:24:56;11.50;;;10.70;;
27977;SDS011;15314;49.248;6.968;2023-01-29T06:26:00;12.63;;;11.73;;
27977;SDS011;15314;49.248;6.968;2023-01-29T06:27:05;11.38;;;10.57;;
27977;SDS011;15314;49.248;6.968;2023-01-29T06:28:06;12.45;;;11.55;;
27977;SDS011;15314;49.248;6.968;2023-01-29T06:29:07;11.32;;;10.43;;
27977;SDS011;15314;49.248;6.968;2023-01-29T06:30:08;11.65;;;10.50;;
27977;SDS011;15314;49.248;6.968;2023-01-29T06:31:09;11.98;;;11.07;;
27977;SDS011;15314;49.248;6.968;2023-01-29T06:32:10;11.70;;;10.70;;
27977;SDS011;15314;49.248;6.968;2023-01-29T06:33:10;10.98;;;10.27;;
27977;SDS011;15314;49.248;6.968;2023-01-29T06:34:11;11.23;;;10.38;;
27977;SDS011;15314;49.248;6.968;2023-01-29T06:35:11;10.95;;;10.25;;
27977;SDS011;15314;49.248;6.968;2023-01-29T06:36:13;12.50;;;11.52;;
27977;SDS011;15314;49.248;6.968;2023-01-29T06:37:13;10.60;;;9.90;;
27977;SDS011;15314;49.248;6.968;2023-01-29T06:38:14;10.82;;;10.13;;
27977;SDS011;15314;49.248;6.968;2023-01-29T06:39:14;11.40;;;10.68;;
27977;SDS011;15314;49.248;6.968;2023-01-29T06:40:15;12.25;;;11.25;;
27977;SDS011;15314;49.248;6.968;2023-01-29T06:41:16;10.82;;;10.02;;
27977;SDS011;15314;49.248;6.968;2023-01-29T06:42:18;12.20;;;11.15;;
27977;SDS011;15314;49.248;6.968;2023-01-29T06:43:19;12.52;;;11.55;;
27977;SDS011;15314;49.248;6.968;2023-01-29T06:44:21;11.80;;;11.00;;
27977;SDS011;15314;49.248;6.968;2023-01-29T06:45:21;13.00;;;11.93;;
27977;SDS011;15314;49.248;6.968;2023-01-29T06:46:23;11.68;;;10.80;;
27977;SDS011;15314;49.248;6.968;2023-01-29T06:47:23;11.32;;;10.60;;
27977;SDS011;15314;49.248;6.968;2023-01-29T06:48:25;12.52;;;11.52;;
27977;SDS011;15314;49.248;6.968;2023-01-29T06:49:26;11.68;;;10.75;;
27977;SDS011;15314;49.248;6.968;2023-01-29T06:50:26;13.23;;;12.30;;
27977;SDS011;15314;49.248;6.968;2023-01-29T06:51:27;13.45;;;12.38;;
27977;SDS011;15314;49.248;6.968;2023-01-29T06:52:28;13.25;;;12.25;;
27977;SDS011;15314;49.248;6.968;2023-01-29T06:53:28;13.80;;;12.70;;
27977;SDS011;15314;49.248;6.968;2023-01-29T06:54:29;13.90;;;12.80;;
27977;SDS011;15314;49.248;6.968;2023-01-29T06:55:30;12.63;;;11.70;;
27977;SDS011;15314;49.248;6.968;2023-01-29T06:56:30;12.98;;;11.90;;
27977;SDS011;15314;49.248;6.968;2023-01-29T06:57:31;14.10;;;13.00;;
27977;SDS011;15314;49.248;6.968;2023-01-29T06:58:32;13.10;;;11.93;;
27977;SDS011;15314;49.248;6.968;2023-01-29T06:59:35;13.73;;;12.60;;
27977;SDS011;15314;49.248;6.968;2023-01-29T07:00:36;13.07;;;12.07;;
27977;SDS011;15314;49.248;6.968;2023-01-29T07:01:38;14.13;;;13.02;;
27977;SDS011;15314;49.248;6.968;2023-01-29T07:02:43;14.43;;;13.27;;
27977;SDS011;15314;49.248;6.968;2023-01-29T07:03:43;13.98;;;12.98;;
27977;SDS011;15314;49.248;6.968;2023-01-29T07:04:44;13.40;;;12.40;;
27977;SDS011;15314;49.248;6.968;2023-01-29T07:05:51;12.00;;;11.20;;
27977;SDS011;15314;49.248;6.968;2023-01-29T07:06:52;13.85;;;12.55;;
27977;SDS011;15314;49.248;6.968;2023-01-29T07:07:52;12.73;;;11.63;;
27977;SDS011;15314;49.248;6.968;2023-01-29T07:08:53;12.82;;;11.63;;